Pagina principală
METAR-TAF:

METAR-TAF

Aeroporturi :

Winston Field

Snyder, Texas, Statele Unite ale Americii

Latitudine: 32-41-36N, longitudine: 100-57-01W, elevație: 741 m

Observații meteo curente

Raportul a fost făcut în urmă cu 12 de minute, la 21:35 UTC
Vânt 8 kt de la Sud
Temperatură 35°C
Umiditate 28%
Presiune 1018 hPa
Vizibilitate: 16.1 km
Nori fragmentați la o înălțime de 7500 picior
Nori fragmentați la o înălțime de 11000 picior

METAR: KSNK 222135Z AUTO 19008KT 10SM BKN075 BKN110 35/14 A3005 RMK AO2 T03520139

Ora: 16:47 (21:47 UTC)


TAF: lipsă

Observații și prognoze meteo pentru peste 4.000 de aeroporturi (rapoarte METAR și TAF).

Stațiile disponibile sunt reprezentate pe hartă prin puncte galbene și roșii.

Țineți indicatorul mouse-ului pe punctul dorit pentru a vedea denumirea stației.

Apoi, faceți clic pentru a vedea observațiile și prognozele meteorologice.

Pentru a schimba harta: Pentru mărire, faceți clic pe butoanele verzi cu cruce neagră; pentru micșorare, pe butonul verde cu o liniuță; pentru hărți învecinate, pe săgețile verzi.


METAR-TAF: